Startpagina
METAR-TAF:

METAR-TAF

Vliegvelden :

Chugiak, Alaska, Verenigde Staten

breedte: 61-25N, lengte: 149-31W, hoogte: 29 m

Actueel weer

Dit bericht is 23 minuten geleden gemaakt, om 08:56 UTC
Weinig wind
Temperatuur 11°C
Vochtigheid 87%
Druk 1023 hPa
Zicht: 16.1 km
Gebroken wolken op 2400 ft
Geheel bewolkt op 3600 ft

METAR: PABV 190856Z AUTO 00000KT 10SM BKN024 OVC036 11/09 A3021 RMK AO2 SLP237 T01110089 51003

Tijdstip: 01:19 (09:19 UTC)


TAF: ontbreekt

Waarnemingen en weersverwachtingen van meer dan 4000 vliegvelden (METAR en TAF).

De beschikbare stations zijn de gele en rode punten op de kaart.

Ga met uw muis naar het station om de naam te zien.

Klik dan om waarnemingen en weersverwachtingen te zien.

kaart wijzigen: klik op de groene knoppen met een zwart kruis om in te zoomen, op de groene knop met een streepje om uit te zoomen of op de groene pijlen voor aangrenzende kaarten.


METAR-TAF: